sensor_id;sensor_type;location;lat;lon;timestamp;pressure;altitude;pressure_sealevel;temperature;humidity
1480;BME280;732;51.698;4.886;2023-12-28T00:00:09;101022.66;;;5.89;81.84
1480;BME280;732;51.698;4.886;2023-12-28T00:02:38;101034.66;;;6.03;81.58
1480;BME280;732;51.698;4.886;2023-12-28T00:05:08;101046.78;;;6.15;81.51
1480;BME280;732;51.698;4.886;2023-12-28T00:07:36;101051.97;;;6.17;81.55
1480;BME280;732;51.698;4.886;2023-12-28T00:10:08;101050.88;;;6.10;81.79
1480;BME280;732;51.698;4.886;2023-12-28T00:12:36;101054.00;;;6.05;82.61
1480;BME280;732;51.698;4.886;2023-12-28T00:15:06;101016.34;;;5.90;81.89
1480;BME280;732;51.698;4.886;2023-12-28T00:17:35;101042.78;;;6.01;82.24
1480;BME280;732;51.698;4.886;2023-12-28T00:20:05;101062.28;;;6.02;82.68
1480;BME280;732;51.698;4.886;2023-12-28T00:22:33;101055.44;;;5.99;82.84
1480;BME280;732;51.698;4.886;2023-12-28T00:25:06;101064.53;;;5.97;83.52
1480;BME280;732;51.698;4.886;2023-12-28T00:27:35;101068.75;;;5.99;83.44
1480;BME280;732;51.698;4.886;2023-12-28T00:30:06;101045.53;;;5.82;83.25
1480;BME280;732;51.698;4.886;2023-12-28T00:32:35;101050.00;;;5.91;82.90
1480;BME280;732;51.698;4.886;2023-12-28T00:35:04;101048.56;;;5.97;82.55
1480;BME280;732;51.698;4.886;2023-12-28T00:37:33;101076.44;;;6.02;83.23
1480;BME280;732;51.698;4.886;2023-12-28T00:40:02;101077.19;;;5.95;83.55
1480;BME280;732;51.698;4.886;2023-12-28T00:42:32;101077.06;;;5.86;83.74
1480;BME280;732;51.698;4.886;2023-12-28T00:45:01;101084.84;;;5.98;83.67
1480;BME280;732;51.698;4.886;2023-12-28T00:47:30;101088.09;;;5.92;83.69
1480;BME280;732;51.698;4.886;2023-12-28T00:49:59;101063.94;;;5.75;84.08
1480;BME280;732;51.698;4.886;2023-12-28T00:52:27;101082.09;;;5.90;83.85
1480;BME280;732;51.698;4.886;2023-12-28T00:54:57;101098.75;;;5.92;83.92
1480;BME280;732;51.698;4.886;2023-12-28T00:57:25;101096.94;;;5.92;84.10
1480;BME280;732;51.698;4.886;2023-12-28T00:59:55;101097.50;;;5.96;83.87
1480;BME280;732;51.698;4.886;2023-12-28T01:02:24;101088.44;;;5.79;84.19
1480;BME280;732;51.698;4.886;2023-12-28T01:04:53;101097.09;;;5.91;84.43
1480;BME280;732;51.698;4.886;2023-12-28T01:07:21;101045.63;;;5.62;84.62
1480;BME280;732;51.698;4.886;2023-12-28T01:09:50;101083.91;;;5.89;84.51
1480;BME280;732;51.698;4.886;2023-12-28T01:12:19;101087.31;;;6.09;84.03
1480;BME280;732;51.698;4.886;2023-12-28T01:14:48;101093.25;;;6.03;84.53
1480;BME280;732;51.698;4.886;2023-12-28T01:17:18;101065.72;;;5.84;84.76
1480;BME280;732;51.698;4.886;2023-12-28T01:19:46;101102.09;;;6.03;84.65
1480;BME280;732;51.698;4.886;2023-12-28T01:22:16;101108.56;;;6.01;84.51
1480;BME280;732;51.698;4.886;2023-12-28T01:24:46;101107.56;;;6.02;84.85
1480;BME280;732;51.698;4.886;2023-12-28T01:27:17;101084.22;;;5.86;84.94
1480;BME280;732;51.698;4.886;2023-12-28T01:29:45;101087.81;;;5.95;85.62
1480;BME280;732;51.698;4.886;2023-12-28T01:32:14;101067.28;;;5.77;85.11
1480;BME280;732;51.698;4.886;2023-12-28T01:34:44;101091.31;;;5.95;85.26
1480;BME280;732;51.698;4.886;2023-12-28T01:37:12;101094.13;;;5.94;84.95
1480;BME280;732;51.698;4.886;2023-12-28T01:39:41;101102.09;;;6.03;84.77
1480;BME280;732;51.698;4.886;2023-12-28T01:42:09;101099.97;;;6.07;84.42
1480;BME280;732;51.698;4.886;2023-12-28T01:44:40;101086.84;;;5.96;84.66
1480;BME280;732;51.698;4.886;2023-12-28T01:47:09;101103.47;;;6.08;84.38
1480;BME280;732;51.698;4.886;2023-12-28T01:49:39;101121.72;;;6.02;84.88
1480;BME280;732;51.698;4.886;2023-12-28T01:52:09;101110.22;;;6.02;84.86
1480;BME280;732;51.698;4.886;2023-12-28T01:54:38;101098.16;;;5.98;84.97
1480;BME280;732;51.698;4.886;2023-12-28T01:57:07;101123.00;;;5.98;85.00
1480;BME280;732;51.698;4.886;2023-12-28T01:59:37;101109.13;;;5.95;85.14
1480;BME280;732;51.698;4.886;2023-12-28T02:02:06;101109.69;;;5.98;85.07
1480;BME280;732;51.698;4.886;2023-12-28T02:04:35;101114.44;;;6.04;84.78
1480;BME280;732;51.698;4.886;2023-12-28T02:07:05;101122.41;;;6.04;84.75
1480;BME280;732;51.698;4.886;2023-12-28T02:09:35;101117.22;;;6.03;84.94
1480;BME280;732;51.698;4.886;2023-12-28T02:12:05;101111.59;;;6.06;85.09
1480;BME280;732;51.698;4.886;2023-12-28T02:14:34;101115.81;;;6.09;84.62
1480;BME280;732;51.698;4.886;2023-12-28T02:17:08;101122.38;;;6.14;84.56
1480;BME280;732;51.698;4.886;2023-12-28T02:19:45;101120.69;;;6.13;84.35
1480;BME280;732;51.698;4.886;2023-12-28T02:22:14;101125.06;;;6.14;84.03
1480;BME280;732;51.698;4.886;2023-12-28T02:25:06;101113.38;;;6.15;84.06
1480;BME280;732;51.698;4.886;2023-12-28T02:27:38;101108.78;;;6.08;84.09
1480;BME280;732;51.698;4.886;2023-12-28T02:30:09;101104.72;;;6.13;83.82
1480;BME280;732;51.698;4.886;2023-12-28T02:32:54;101117.56;;;6.18;83.41
1480;BME280;732;51.698;4.886;2023-12-28T02:35:32;101102.13;;;6.22;83.43
1480;BME280;732;51.698;4.886;2023-12-28T02:38:06;101114.78;;;6.19;83.49
1480;BME280;732;51.698;4.886;2023-12-28T02:40:40;101105.38;;;6.15;83.38
1480;BME280;732;51.698;4.886;2023-12-28T02:43:12;101092.53;;;6.11;83.54
1480;BME280;732;51.698;4.886;2023-12-28T02:45:40;101097.88;;;6.11;83.36
1480;BME280;732;51.698;4.886;2023-12-28T02:48:10;101086.09;;;6.03;83.55
1480;BME280;732;51.698;4.886;2023-12-28T02:50:39;101081.66;;;5.94;83.68
1480;BME280;732;51.698;4.886;2023-12-28T02:53:07;101112.31;;;6.08;83.73
1480;BME280;732;51.698;4.886;2023-12-28T02:55:37;101097.00;;;6.10;83.57
1480;BME280;732;51.698;4.886;2023-12-28T02:58:06;101101.19;;;6.13;83.33
1480;BME280;732;51.698;4.886;2023-12-28T03:00:34;101102.09;;;6.03;83.93
1480;BME280;732;51.698;4.886;2023-12-28T03:03:03;101080.56;;;5.87;83.76
1480;BME280;732;51.698;4.886;2023-12-28T03:05:32;101095.66;;;5.96;83.88
1480;BME280;732;51.698;4.886;2023-12-28T03:08:00;101112.25;;;6.18;83.35
1480;BME280;732;51.698;4.886;2023-12-28T03:10:29;101125.84;;;6.25;83.01
1480;BME280;732;51.698;4.886;2023-12-28T03:13:00;101124.53;;;6.39;82.67
1480;BME280;732;51.698;4.886;2023-12-28T03:15:28;101107.84;;;6.27;82.35
1480;BME280;732;51.698;4.886;2023-12-28T03:17:57;101120.34;;;6.36;82.10
1480;BME280;732;51.698;4.886;2023-12-28T03:20:26;101107.84;;;6.27;82.37
1480;BME280;732;51.698;4.886;2023-12-28T03:22:54;101115.47;;;6.22;82.57
1480;BME280;732;51.698;4.886;2023-12-28T03:25:23;101119.25;;;6.19;82.67
1480;BME280;732;51.698;4.886;2023-12-28T03:27:51;101115.47;;;6.22;82.58
1480;BME280;732;51.698;4.886;2023-12-28T03:30:24;101111.25;;;6.19;82.39
1480;BME280;732;51.698;4.886;2023-12-28T03:32:52;101081.59;;;6.04;82.45
1480;BME280;732;51.698;4.886;2023-12-28T03:35:21;101107.34;;;6.23;82.58
1480;BME280;732;51.698;4.886;2023-12-28T03:37:49;101104.81;;;6.22;82.38
1480;BME280;732;51.698;4.886;2023-12-28T03:40:19;101103.66;;;6.24;82.35
1480;BME280;732;51.698;4.886;2023-12-28T03:42:47;101097.00;;;6.10;82.52
1480;BME280;732;51.698;4.886;2023-12-28T03:45:16;101119.03;;;6.12;82.86
1480;BME280;732;51.698;4.886;2023-12-28T03:47:45;101107.00;;;6.08;82.96
1480;BME280;732;51.698;4.886;2023-12-28T03:50:17;101099.72;;;6.00;82.89
1480;BME280;732;51.698;4.886;2023-12-28T03:52:46;101091.34;;;5.85;83.26
1480;BME280;732;51.698;4.886;2023-12-28T03:55:14;101079.44;;;5.90;82.98
1480;BME280;732;51.698;4.886;2023-12-28T03:57:43;101090.19;;;5.98;82.36
1480;BME280;732;51.698;4.886;2023-12-28T04:00:13;101102.69;;;5.97;83.02
1480;BME280;732;51.698;4.886;2023-12-28T04:02:45;101082.50;;;5.95;82.97
1480;BME280;732;51.698;4.886;2023-12-28T04:05:17;101103.97;;;5.93;82.96
1480;BME280;732;51.698;4.886;2023-12-28T04:07:46;101116.72;;;5.90;83.42
1480;BME280;732;51.698;4.886;2023-12-28T04:10:28;101086.78;;;5.68;83.47
1480;BME280;732;51.698;4.886;2023-12-28T04:12:57;101106.78;;;5.82;83.48
1480;BME280;732;51.698;4.886;2023-12-28T04:15:26;101109.31;;;5.83;83.29
1480;BME280;732;51.698;4.886;2023-12-28T04:17:56;101072.66;;;5.67;83.31
1480;BME280;732;51.698;4.886;2023-12-28T04:20:26;101102.03;;;5.76;83.03
1480;BME280;732;51.698;4.886;2023-12-28T04:22:54;101079.13;;;5.55;83.30
1480;BME280;732;51.698;4.886;2023-12-28T04:25:22;101115.22;;;5.77;83.77
1480;BME280;732;51.698;4.886;2023-12-28T04:27:51;101128.38;;;5.79;83.85
1480;BME280;732;51.698;4.886;2023-12-28T04:30:19;101106.19;;;5.88;83.56
1480;BME280;732;51.698;4.886;2023-12-28T04:32:48;101098.09;;;5.90;82.90
1480;BME280;732;51.698;4.886;2023-12-28T04:35:18;101103.91;;;6.03;82.17
1480;BME280;732;51.698;4.886;2023-12-28T04:37:46;101113.44;;;6.06;81.59
1480;BME280;732;51.698;4.886;2023-12-28T04:40:15;101098.47;;;5.95;81.92
1480;BME280;732;51.698;4.886;2023-12-28T04:42:44;101113.19;;;5.99;82.26
1480;BME280;732;51.698;4.886;2023-12-28T04:45:13;101102.25;;;6.02;81.99
1480;BME280;732;51.698;4.886;2023-12-28T04:47:41;101118.31;;;6.10;81.80
1480;BME280;732;51.698;4.886;2023-12-28T04:50:10;101107.22;;;6.15;81.16
1480;BME280;732;51.698;4.886;2023-12-28T04:52:40;101105.81;;;6.20;80.78
1480;BME280;732;51.698;4.886;2023-12-28T04:55:09;101107.03;;;6.26;79.67
1480;BME280;732;51.698;4.886;2023-12-28T04:57:37;101096.75;;;6.31;79.65
1480;BME280;732;51.698;4.886;2023-12-28T05:00:08;101107.34;;;6.51;79.39
1480;BME280;732;51.698;4.886;2023-12-28T05:02:36;101068.72;;;6.37;78.54
1480;BME280;732;51.698;4.886;2023-12-28T05:05:05;101110.25;;;6.58;78.68
1480;BME280;732;51.698;4.886;2023-12-28T05:07:36;101100.72;;;6.37;78.46
1480;BME280;732;51.698;4.886;2023-12-28T05:10:07;101122.31;;;6.62;78.57
1480;BME280;732;51.698;4.886;2023-12-28T05:12:36;101134.34;;;6.66;77.86
1480;BME280;732;51.698;4.886;2023-12-28T05:15:08;101111.94;;;6.59;77.53
1480;BME280;732;51.698;4.886;2023-12-28T05:17:37;101111.25;;;6.57;77.87
1480;BME280;732;51.698;4.886;2023-12-28T05:20:07;101137.22;;;6.55;77.47
1480;BME280;732;51.698;4.886;2023-12-28T05:22:36;101133.22;;;6.68;77.46
1480;BME280;732;51.698;4.886;2023-12-28T05:25:06;101126.56;;;6.73;77.24
1480;BME280;732;51.698;4.886;2023-12-28T05:27:35;101137.84;;;6.66;77.15
1480;BME280;732;51.698;4.886;2023-12-28T05:30:05;101118.78;;;6.61;77.21
1480;BME280;732;51.698;4.886;2023-12-28T05:32:34;101132.38;;;6.68;77.37
1480;BME280;732;51.698;4.886;2023-12-28T05:35:04;101133.75;;;6.72;76.98
1480;BME280;732;51.698;4.886;2023-12-28T05:37:33;101117.38;;;6.67;76.41
1480;BME280;732;51.698;4.886;2023-12-28T05:40:01;101119.72;;;6.70;76.39
1480;BME280;732;51.698;4.886;2023-12-28T05:42:32;101121.94;;;6.75;76.82
1480;BME280;732;51.698;4.886;2023-12-28T05:45:00;101126.72;;;6.71;76.42
1480;BME280;732;51.698;4.886;2023-12-28T05:47:28;101140.00;;;6.81;75.85
1480;BME280;732;51.698;4.886;2023-12-28T05:49:57;101130.63;;;6.77;76.21
1480;BME280;732;51.698;4.886;2023-12-28T05:52:25;101134.03;;;6.69;76.39
1480;BME280;732;51.698;4.886;2023-12-28T05:54:54;101140.59;;;6.93;75.93
1480;BME280;732;51.698;4.886;2023-12-28T05:57:24;101135.38;;;6.83;75.25
1480;BME280;732;51.698;4.886;2023-12-28T05:59:55;101113.88;;;6.84;75.96
1480;BME280;732;51.698;4.886;2023-12-28T06:02:23;101139.56;;;6.86;75.81
1480;BME280;732;51.698;4.886;2023-12-28T06:04:52;101153.44;;;6.89;76.07
1480;BME280;732;51.698;4.886;2023-12-28T06:07:20;101136.41;;;6.90;76.11
1480;BME280;732;51.698;4.886;2023-12-28T06:09:49;101151.38;;;6.83;76.42
1480;BME280;732;51.698;4.886;2023-12-28T06:12:18;101133.97;;;6.79;76.69
1480;BME280;732;51.698;4.886;2023-12-28T06:14:46;101163.31;;;6.79;76.44
1480;BME280;732;51.698;4.886;2023-12-28T06:17:16;101148.75;;;6.73;76.97
1480;BME280;732;51.698;4.886;2023-12-28T06:19:45;101129.28;;;6.63;76.65
1480;BME280;732;51.698;4.886;2023-12-28T06:22:14;101162.53;;;6.68;77.35
1480;BME280;732;51.698;4.886;2023-12-28T06:24:43;101170.91;;;6.74;77.35
1480;BME280;732;51.698;4.886;2023-12-28T06:27:12;101166.44;;;6.74;77.12
1480;BME280;732;51.698;4.886;2023-12-28T06:29:41;101186.47;;;6.78;76.80
1480;BME280;732;51.698;4.886;2023-12-28T06:32:09;101163.53;;;6.67;77.40
1480;BME280;732;51.698;4.886;2023-12-28T06:34:39;101180.25;;;6.60;77.56
1480;BME280;732;51.698;4.886;2023-12-28T06:37:08;101187.50;;;6.67;77.00
1480;BME280;732;51.698;4.886;2023-12-28T06:39:36;101184.69;;;6.69;76.75
1480;BME280;732;51.698;4.886;2023-12-28T06:42:05;101156.72;;;6.55;77.17
1480;BME280;732;51.698;4.886;2023-12-28T06:44:34;101176.84;;;6.67;76.96
1480;BME280;732;51.698;4.886;2023-12-28T06:47:03;101170.31;;;6.62;76.17
1480;BME280;732;51.698;4.886;2023-12-28T06:49:32;101179.72;;;6.56;76.98
1480;BME280;732;51.698;4.886;2023-12-28T06:52:02;101164.19;;;6.42;76.75
1480;BME280;732;51.698;4.886;2023-12-28T06:54:30;101179.56;;;6.58;76.77
1480;BME280;732;51.698;4.886;2023-12-28T06:56:59;101173.94;;;6.61;76.92
1480;BME280;732;51.698;4.886;2023-12-28T06:59:28;101176.94;;;6.48;77.10
1480;BME280;732;51.698;4.886;2023-12-28T07:01:56;101167.19;;;6.29;77.85
1480;BME280;732;51.698;4.886;2023-12-28T07:04:25;101175.47;;;6.26;78.36
1480;BME280;732;51.698;4.886;2023-12-28T07:06:56;101167.22;;;6.19;78.52
1480;BME280;732;51.698;4.886;2023-12-28T07:09:26;101185.31;;;6.15;78.65
1480;BME280;732;51.698;4.886;2023-12-28T07:11:54;101185.78;;;6.11;78.74
1480;BME280;732;51.698;4.886;2023-12-28T07:14:23;101174.00;;;6.03;79.12
1480;BME280;732;51.698;4.886;2023-12-28T07:16:51;101193.47;;;6.04;78.87
1480;BME280;732;51.698;4.886;2023-12-28T07:19:20;101153.69;;;5.93;78.75
1480;BME280;732;51.698;4.886;2023-12-28T07:21:48;101192.75;;;6.12;78.67
1480;BME280;732;51.698;4.886;2023-12-28T07:24:17;101193.13;;;6.27;78.71
1480;BME280;732;51.698;4.886;2023-12-28T07:26:47;101201.56;;;6.32;78.20
1480;BME280;732;51.698;4.886;2023-12-28T07:29:15;101205.47;;;6.38;77.84
1480;BME280;732;51.698;4.886;2023-12-28T07:31:44;101198.84;;;6.42;77.74
1480;BME280;732;51.698;4.886;2023-12-28T07:34:12;101212.44;;;6.48;77.66
1480;BME280;732;51.698;4.886;2023-12-28T07:36:41;101195.59;;;6.48;77.33
1480;BME280;732;51.698;4.886;2023-12-28T07:39:10;101186.38;;;6.42;76.65
1480;BME280;732;51.698;4.886;2023-12-28T07:41:40;101226.88;;;6.56;76.84
1480;BME280;732;51.698;4.886;2023-12-28T07:44:09;101226.56;;;6.59;76.63
1480;BME280;732;51.698;4.886;2023-12-28T07:46:38;101231.63;;;6.62;77.10
1480;BME280;732;51.698;4.886;2023-12-28T07:49:06;101227.56;;;6.58;76.69
1480;BME280;732;51.698;4.886;2023-12-28T07:51:35;101224.75;;;6.59;77.08
1480;BME280;732;51.698;4.886;2023-12-28T07:54:04;101217.66;;;6.40;76.88
1480;BME280;732;51.698;4.886;2023-12-28T07:56:32;101232.28;;;6.64;76.81
1480;BME280;732;51.698;4.886;2023-12-28T07:59:00;101227.50;;;6.67;76.38
1480;BME280;732;51.698;4.886;2023-12-28T08:01:31;101227.28;;;6.61;76.50
1480;BME280;732;51.698;4.886;2023-12-28T08:04:01;101192.84;;;6.40;76.71
1480;BME280;732;51.698;4.886;2023-12-28T08:06:31;101214.13;;;6.49;76.47
1480;BME280;732;51.698;4.886;2023-12-28T08:09:00;101154.50;;;6.03;77.16
1480;BME280;732;51.698;4.886;2023-12-28T08:11:28;101216.69;;;6.41;77.34
1480;BME280;732;51.698;4.886;2023-12-28T08:13:57;101209.81;;;6.39;77.03
1480;BME280;732;51.698;4.886;2023-12-28T08:16:25;101216.69;;;6.41;76.75
1480;BME280;732;51.698;4.886;2023-12-28T08:18:55;101197.50;;;6.18;76.92
1480;BME280;732;51.698;4.886;2023-12-28T08:21:24;101224.91;;;6.48;76.54
1480;BME280;732;51.698;4.886;2023-12-28T08:23:52;101237.81;;;6.52;76.45
1480;BME280;732;51.698;4.886;2023-12-28T08:26:21;101235.13;;;6.62;76.17
1480;BME280;732;51.698;4.886;2023-12-28T08:28:49;101240.88;;;6.58;75.76
1480;BME280;732;51.698;4.886;2023-12-28T08:31:18;101233.00;;;6.66;75.50
1480;BME280;732;51.698;4.886;2023-12-28T08:33:47;101246.72;;;6.71;75.39
1480;BME280;732;51.698;4.886;2023-12-28T08:36:17;101248.16;;;6.65;75.43
1480;BME280;732;51.698;4.886;2023-12-28T08:38:45;101242.09;;;6.73;75.28
1480;BME280;732;51.698;4.886;2023-12-28T08:41:20;101218.47;;;6.78;74.33
1480;BME280;732;51.698;4.886;2023-12-28T08:43:51;101246.25;;;6.86;74.12
1480;BME280;732;51.698;4.886;2023-12-28T08:46:21;101239.03;;;6.96;74.08
1480;BME280;732;51.698;4.886;2023-12-28T08:48:52;101231.78;;;6.88;73.99
1480;BME280;732;51.698;4.886;2023-12-28T08:51:22;101216.44;;;6.90;73.41
1480;BME280;732;51.698;4.886;2023-12-28T08:53:51;101259.22;;;6.98;73.58
1480;BME280;732;51.698;4.886;2023-12-28T08:56:21;101250.41;;;6.98;73.71
1480;BME280;732;51.698;4.886;2023-12-28T08:58:50;101249.34;;;6.81;73.58
1480;BME280;732;51.698;4.886;2023-12-28T09:01:20;101241.63;;;6.78;73.52
1480;BME280;732;51.698;4.886;2023-12-28T09:03:50;101254.72;;;6.99;72.97
1480;BME280;732;51.698;4.886;2023-12-28T09:06:19;101225.03;;;6.84;73.71
1480;BME280;732;51.698;4.886;2023-12-28T09:08:51;101261.28;;;6.87;73.71
1480;BME280;732;51.698;4.886;2023-12-28T09:11:20;101265.75;;;6.86;73.92
1480;BME280;732;51.698;4.886;2023-12-28T09:13:49;101266.19;;;6.81;74.08
1480;BME280;732;51.698;4.886;2023-12-28T09:16:17;101265.94;;;6.75;74.30
1480;BME280;732;51.698;4.886;2023-12-28T09:18:46;101245.94;;;6.61;74.52
1480;BME280;732;51.698;4.886;2023-12-28T09:21:15;101261.69;;;6.82;74.50
1480;BME280;732;51.698;4.886;2023-12-28T09:23:43;101262.66;;;6.91;74.33
1480;BME280;732;51.698;4.886;2023-12-28T09:26:13;101257.69;;;6.96;73.55
1480;BME280;732;51.698;4.886;2023-12-28T09:28:44;101278.59;;;7.00;73.64
1480;BME280;732;51.698;4.886;2023-12-28T09:31:12;101244.25;;;6.88;73.85
1480;BME280;732;51.698;4.886;2023-12-28T09:33:43;101293.50;;;7.21;73.32
1480;BME280;732;51.698;4.886;2023-12-28T09:36:11;101281.09;;;7.30;72.71
1480;BME280;732;51.698;4.886;2023-12-28T09:38:40;101278.47;;;7.20;72.49
1480;BME280;732;51.698;4.886;2023-12-28T09:41:14;101298.88;;;7.11;73.29
1480;BME280;732;51.698;4.886;2023-12-28T09:43:52;101284.72;;;7.11;73.24
1480;BME280;732;51.698;4.886;2023-12-28T09:46:24;101269.69;;;7.10;72.52
1480;BME280;732;51.698;4.886;2023-12-28T09:48:53;101296.44;;;7.28;72.36
1480;BME280;732;51.698;4.886;2023-12-28T09:51:24;101294.03;;;7.25;72.93
1480;BME280;732;51.698;4.886;2023-12-28T09:53:53;101264.41;;;7.00;72.75
1480;BME280;732;51.698;4.886;2023-12-28T09:56:23;101268.72;;;6.83;73.07
1480;BME280;732;51.698;4.886;2023-12-28T09:58:57;101301.56;;;7.11;73.20
1480;BME280;732;51.698;4.886;2023-12-28T10:01:26;101296.28;;;7.29;72.91
1480;BME280;732;51.698;4.886;2023-12-28T10:03:54;101260.59;;;7.03;72.73
1480;BME280;732;51.698;4.886;2023-12-28T10:06:23;101298.59;;;7.14;73.12
1480;BME280;732;51.698;4.886;2023-12-28T10:08:51;101294.56;;;7.10;72.62
1480;BME280;732;51.698;4.886;2023-12-28T10:11:20;101308.28;;;7.15;72.92
1480;BME280;732;51.698;4.886;2023-12-28T10:13:50;101326.00;;;7.16;73.16
1480;BME280;732;51.698;4.886;2023-12-28T10:16:19;101302.16;;;7.05;73.07
1480;BME280;732;51.698;4.886;2023-12-28T10:18:48;101298.22;;;7.09;73.14
1480;BME280;732;51.698;4.886;2023-12-28T10:21:16;101288.97;;;7.04;72.78
1480;BME280;732;51.698;4.886;2023-12-28T10:23:45;101316.16;;;7.17;72.75
1480;BME280;732;51.698;4.886;2023-12-28T10:26:17;101315.00;;;7.20;72.77
1480;BME280;732;51.698;4.886;2023-12-28T10:28:46;101312.44;;;7.28;72.41
1480;BME280;732;51.698;4.886;2023-12-28T10:31:16;101323.94;;;7.28;72.39
1480;BME280;732;51.698;4.886;2023-12-28T10:33:45;101292.31;;;7.33;72.27
1480;BME280;732;51.698;4.886;2023-12-28T10:36:15;101300.56;;;7.40;71.75
1480;BME280;732;51.698;4.886;2023-12-28T10:38:45;101303.47;;;7.47;71.50
1480;BME280;732;51.698;4.886;2023-12-28T10:41:16;101282.94;;;7.47;71.40
1480;BME280;732;51.698;4.886;2023-12-28T10:43:49;101306.28;;;7.45;70.33
1480;BME280;732;51.698;4.886;2023-12-28T10:46:26;101295.13;;;7.50;70.94
1480;BME280;732;51.698;4.886;2023-12-28T10:48:59;101290.00;;;7.39;70.80
1480;BME280;732;51.698;4.886;2023-12-28T10:51:29;101313.53;;;7.53;70.77
1480;BME280;732;51.698;4.886;2023-12-28T10:54:08;101270.72;;;7.45;70.76
1480;BME280;732;51.698;4.886;2023-12-28T10:56:45;101274.91;;;7.47;70.11
1480;BME280;732;51.698;4.886;2023-12-28T10:59:35;101304.53;;;7.54;70.60
1480;BME280;732;51.698;4.886;2023-12-28T11:02:10;101297.13;;;7.66;70.24
1480;BME280;732;51.698;4.886;2023-12-28T11:04:44;101297.00;;;7.68;69.63
1480;BME280;732;51.698;4.886;2023-12-28T11:07:17;101281.34;;;7.55;70.45
1480;BME280;732;51.698;4.886;2023-12-28T11:09:46;101264.34;;;7.56;69.75
1480;BME280;732;51.698;4.886;2023-12-28T11:12:16;101298.97;;;7.65;69.89
1480;BME280;732;51.698;4.886;2023-12-28T11:14:47;101288.13;;;7.67;69.85
1480;BME280;732;51.698;4.886;2023-12-28T11:17:20;101300.94;;;7.63;69.87
1480;BME280;732;51.698;4.886;2023-12-28T11:19:50;101250.00;;;7.57;69.94
1480;BME280;732;51.698;4.886;2023-12-28T11:22:22;101251.81;;;7.74;69.58
1480;BME280;732;51.698;4.886;2023-12-28T11:24:52;101286.91;;;7.79;69.56
1480;BME280;732;51.698;4.886;2023-12-28T11:27:22;101284.69;;;7.93;69.30
1480;BME280;732;51.698;4.886;2023-12-28T11:29:51;101271.78;;;7.88;69.09
1480;BME280;732;51.698;4.886;2023-12-28T11:32:22;101270.91;;;7.97;69.17
1480;BME280;732;51.698;4.886;2023-12-28T11:34:57;101277.53;;;8.11;68.84
1480;BME280;732;51.698;4.886;2023-12-28T11:37:27;101274.75;;;8.21;68.57
1480;BME280;732;51.698;4.886;2023-12-28T11:39:58;101260.28;;;8.06;67.77
1480;BME280;732;51.698;4.886;2023-12-28T11:42:29;101282.50;;;8.06;68.57
1480;BME280;732;51.698;4.886;2023-12-28T11:44:57;101266.56;;;7.96;68.49
1480;BME280;732;51.698;4.886;2023-12-28T11:47:27;101267.38;;;7.97;68.78
1480;BME280;732;51.698;4.886;2023-12-28T11:49:55;101262.47;;;8.10;68.48
1480;BME280;732;51.698;4.886;2023-12-28T11:52:34;101258.59;;;8.05;68.22
1480;BME280;732;51.698;4.886;2023-12-28T11:55:03;101261.16;;;8.14;68.43
1480;BME280;732;51.698;4.886;2023-12-28T11:57:32;101248.13;;;8.11;68.27
1480;BME280;732;51.698;4.886;2023-12-28T12:00:02;101250.81;;;8.11;67.60
1480;BME280;732;51.698;4.886;2023-12-28T12:02:33;101264.28;;;8.28;67.82
1480;BME280;732;51.698;4.886;2023-12-28T12:05:02;101266.31;;;8.08;67.69
1480;BME280;732;51.698;4.886;2023-12-28T12:07:30;101277.28;;;8.05;68.22
1480;BME280;732;51.698;4.886;2023-12-28T12:09:59;101269.44;;;7.85;68.30
1480;BME280;732;51.698;4.886;2023-12-28T12:12:28;101243.97;;;7.73;68.63
1480;BME280;732;51.698;4.886;2023-12-28T12:14:58;101250.94;;;7.92;68.64
1480;BME280;732;51.698;4.886;2023-12-28T12:17:27;101262.47;;;7.92;68.31
1480;BME280;732;51.698;4.886;2023-12-28T12:19:57;101267.31;;;7.89;68.53
1480;BME280;732;51.698;4.886;2023-12-28T12:22:26;101248.22;;;8.02;68.03
1480;BME280;732;51.698;4.886;2023-12-28T12:24:56;101228.47;;;7.76;68.48
1480;BME280;732;51.698;4.886;2023-12-28T12:27:26;101266.25;;;7.81;68.57
1480;BME280;732;51.698;4.886;2023-12-28T12:29:55;101255.78;;;7.70;69.33
1480;BME280;732;51.698;4.886;2023-12-28T12:32:23;101265.00;;;7.76;69.59
1480;BME280;732;51.698;4.886;2023-12-28T12:34:52;101235.88;;;7.82;68.97
1480;BME280;732;51.698;4.886;2023-12-28T12:37:22;101247.75;;;8.06;68.89
1480;BME280;732;51.698;4.886;2023-12-28T12:39:51;101232.88;;;7.86;69.10
1480;BME280;732;51.698;4.886;2023-12-28T12:42:21;101253.78;;;7.90;68.99
1480;BME280;732;51.698;4.886;2023-12-28T12:44:50;101245.78;;;7.90;69.29
1480;BME280;732;51.698;4.886;2023-12-28T12:47:18;101250.81;;;7.75;69.49
1480;BME280;732;51.698;4.886;2023-12-28T12:49:47;101260.19;;;7.79;69.81
1480;BME280;732;51.698;4.886;2023-12-28T12:52:16;101240.34;;;7.82;69.38
1480;BME280;732;51.698;4.886;2023-12-28T12:54:54;101239.16;;;7.76;69.48
1480;BME280;732;51.698;4.886;2023-12-28T12:57:24;101238.75;;;7.89;70.06
1480;BME280;732;51.698;4.886;2023-12-28T12:59:53;101239.69;;;7.98;69.71
1480;BME280;732;51.698;4.886;2023-12-28T13:02:23;101231.72;;;8.06;68.88
1480;BME280;732;51.698;4.886;2023-12-28T13:04:52;101220.88;;;7.90;68.37
1480;BME280;732;51.698;4.886;2023-12-28T13:07:21;101218.44;;;7.78;69.34
1480;BME280;732;51.698;4.886;2023-12-28T13:09:52;101204.47;;;7.85;68.99
1480;BME280;732;51.698;4.886;2023-12-28T13:12:20;101212.56;;;7.75;68.91
1480;BME280;732;51.698;4.886;2023-12-28T13:14:49;101205.06;;;7.70;68.84
1480;BME280;732;51.698;4.886;2023-12-28T13:17:17;101207.56;;;7.72;68.86
1480;BME280;732;51.698;4.886;2023-12-28T13:19:45;101211.66;;;7.84;69.36
1480;BME280;732;51.698;4.886;2023-12-28T13:22:14;101224.16;;;7.84;69.30
1480;BME280;732;51.698;4.886;2023-12-28T13:24:43;101209.81;;;7.85;69.11
1480;BME280;732;51.698;4.886;2023-12-28T13:27:13;101221.13;;;7.96;69.07
1480;BME280;732;51.698;4.886;2023-12-28T13:29:41;101210.44;;;7.96;68.85
1480;BME280;732;51.698;4.886;2023-12-28T13:32:10;101207.94;;;7.77;69.54
1480;BME280;732;51.698;4.886;2023-12-28T13:34:39;101206.34;;;7.66;69.99
1480;BME280;732;51.698;4.886;2023-12-28T13:37:08;101204.97;;;7.62;70.32
1480;BME280;732;51.698;4.886;2023-12-28T13:39:36;101205.88;;;7.71;70.53
1480;BME280;732;51.698;4.886;2023-12-28T13:42:06;101211.69;;;7.92;70.23
1480;BME280;732;51.698;4.886;2023-12-28T13:44:36;101181.22;;;7.77;69.54